createdAt,value
2018-05-09T00:01:26.385Z,78.90
2018-05-09T00:06:28.089Z,78.90
2018-05-09T00:11:31.594Z,78.80
2018-05-09T00:16:34.748Z,79.00
2018-05-09T00:21:36.441Z,78.70
2018-05-09T00:26:38.887Z,78.50
2018-05-09T00:31:41.739Z,78.30
2018-05-09T00:36:43.208Z,78.80
2018-05-09T00:41:45.713Z,78.80
2018-05-09T00:46:47.851Z,79.30
2018-05-09T00:51:49.291Z,79.30
2018-05-09T00:56:51.550Z,78.90
2018-05-09T01:01:56.576Z,79.50
2018-05-09T01:06:58.116Z,79.40
2018-05-09T01:11:59.504Z,79.20
2018-05-09T01:17:00.920Z,79.60
2018-05-09T01:22:02.425Z,79.70
2018-05-09T01:27:03.759Z,80.00
2018-05-09T01:32:05.329Z,79.80
2018-05-09T01:37:06.783Z,79.80
2018-05-09T01:42:08.223Z,81.70
2018-05-09T01:47:10.541Z,82.20
2018-05-09T01:52:11.966Z,82.00
2018-05-09T01:57:13.469Z,81.60
2018-05-09T02:02:14.870Z,82.20
2018-05-09T02:07:16.271Z,81.70
2018-05-09T02:12:18.551Z,81.50
2018-05-09T02:17:20.098Z,81.50
2018-05-09T02:22:21.497Z,81.10
2018-05-09T02:27:22.908Z,80.90
2018-05-09T02:32:24.331Z,81.10
2018-05-09T02:37:26.440Z,82.10
2018-05-09T02:42:27.957Z,82.00
2018-05-09T02:47:29.405Z,83.00
2018-05-09T02:52:30.763Z,83.60
2018-05-09T02:57:33.174Z,83.40
2018-05-09T03:02:34.737Z,83.40
2018-05-09T03:07:36.202Z,83.10
2018-05-09T03:12:39.613Z,82.30
2018-05-09T03:17:41.172Z,82.60
2018-05-09T03:22:42.612Z,82.40
2018-05-09T03:27:45.106Z,81.70
2018-05-09T03:32:47.481Z,82.00
2018-05-09T03:37:48.933Z,82.60
2018-05-09T03:42:50.220Z,83.30
2018-05-09T03:47:52.574Z,82.60
2018-05-09T03:52:54.365Z,82.90
2018-05-09T03:57:55.691Z,83.80
2018-05-09T04:03:09.974Z,83.00
2018-05-09T04:08:24.212Z,83.80
2018-05-09T04:13:26.334Z,82.00
2018-05-09T04:18:27.742Z,81.90
2018-05-09T04:23:29.304Z,83.00
2018-05-09T04:28:30.781Z,83.20
2018-05-09T04:33:32.250Z,81.60
2018-05-09T04:38:33.715Z,83.00
2018-05-09T04:43:35.376Z,77.90
2018-05-09T04:48:36.821Z,72.00
2018-05-09T04:53:39.201Z,66.90
2018-05-09T04:58:40.737Z,65.40
2018-05-09T05:03:42.472Z,60.80
2018-05-09T05:08:44.410Z,59.40
2018-05-09T05:13:45.898Z,56.20
2018-05-09T05:18:47.521Z,54.00
2018-05-09T05:23:49.088Z,54.30
2018-05-09T05:28:50.536Z,58.00
2018-05-09T05:33:53.692Z,61.40
2018-05-09T05:38:55.198Z,61.40
2018-05-09T05:43:56.552Z,61.60
2018-05-09T05:48:57.997Z,59.20
2018-05-09T05:53:59.397Z,54.00
2018-05-09T05:59:00.978Z,53.70
2018-05-09T06:04:04.113Z,52.30
2018-05-09T06:09:05.549Z,52.30
2018-05-09T06:14:07.710Z,53.00
2018-05-09T06:19:09.228Z,53.00
2018-05-09T06:24:10.642Z,55.10
2018-05-09T06:29:12.019Z,52.60
2018-05-09T06:34:13.498Z,51.90
2018-05-09T06:39:15.841Z,48.00
2018-05-09T06:44:17.927Z,42.60
2018-05-09T06:49:19.389Z,41.90
2018-05-09T06:54:20.830Z,41.90
2018-05-09T06:59:22.292Z,43.20
2018-05-09T07:04:24.063Z,43.40
2018-05-09T07:09:25.479Z,41.80
2018-05-09T07:14:26.944Z,46.20
2018-05-09T07:19:28.495Z,49.20
2018-05-09T07:24:30.295Z,50.20
2018-05-09T07:29:31.756Z,49.90
2018-05-09T07:34:33.244Z,48.90
2018-05-09T07:39:34.647Z,51.00
2018-05-09T07:44:36.019Z,50.50
2018-05-09T07:49:37.418Z,51.20
2018-05-09T07:54:40.691Z,52.30
2018-05-09T07:59:42.193Z,52.20
2018-05-09T08:04:43.632Z,52.80
2018-05-09T08:09:45.166Z,53.70
2018-05-09T08:14:46.668Z,55.50
2018-05-09T08:19:48.171Z,57.10
2018-05-09T08:24:50.718Z,56.40
2018-05-09T08:29:52.126Z,55.70
2018-05-09T08:34:54.618Z,54.40
2018-05-09T08:39:56.038Z,51.70
2018-05-09T08:44:57.512Z,50.90
2018-05-09T08:50:00.710Z,50.30
2018-05-09T08:55:02.083Z,50.30
2018-05-09T09:00:03.673Z,48.10
2018-05-09T09:05:06.197Z,48.30
2018-05-09T09:10:08.542Z,47.80
2018-05-09T09:15:13.580Z,47.00
2018-05-09T09:20:14.934Z,47.30
2018-05-09T09:25:16.548Z,46.20
2018-05-09T09:30:20.149Z,47.00
2018-05-09T09:35:22.621Z,45.00
2018-05-09T09:40:24.072Z,44.10
2018-05-09T09:45:25.595Z,41.50
2018-05-09T09:50:27.077Z,43.10
2018-05-09T09:55:28.575Z,39.20
2018-05-09T10:00:30.174Z,40.40
2018-05-09T10:05:32.425Z,38.20
2018-05-09T10:10:33.985Z,38.10
2018-05-09T10:15:35.833Z,38.40
2018-05-09T10:20:37.274Z,38.00
2018-05-09T10:25:38.901Z,36.70
2018-05-09T10:30:40.498Z,37.30
2018-05-09T10:35:41.922Z,37.50
2018-05-09T10:40:43.369Z,34.80
2018-05-09T10:45:44.832Z,33.90
2018-05-09T10:50:46.384Z,34.70
2018-05-09T10:55:47.831Z,34.70
2018-05-09T11:00:50.069Z,33.90
2018-05-09T11:05:51.543Z,33.90
2018-05-09T11:10:53.981Z,34.90
2018-05-09T11:15:55.596Z,34.90
2018-05-09T11:20:57.132Z,33.60
2018-05-09T11:25:59.699Z,33.20
2018-05-09T11:31:01.976Z,31.80
2018-05-09T11:36:03.519Z,31.70
2018-05-09T11:41:05.146Z,30.90
2018-05-09T11:46:06.674Z,31.70
2018-05-09T11:51:09.205Z,30.50
2018-05-09T11:56:10.709Z,30.60
2018-05-09T12:01:13.072Z,30.00
2018-05-09T12:06:14.454Z,28.60
2018-05-09T12:11:15.817Z,28.30
2018-05-09T12:16:17.255Z,28.90
2018-05-09T12:21:18.856Z,28.90
2018-05-09T12:26:20.214Z,28.80
2018-05-09T12:31:22.742Z,30.30
2018-05-09T12:36:25.939Z,28.10
2018-05-09T12:41:30.783Z,28.00
2018-05-09T12:46:33.184Z,28.90
2018-05-09T12:51:34.479Z,28.90
2018-05-09T12:56:35.841Z,27.70
2018-05-09T13:01:37.285Z,28.10
2018-05-09T13:06:41.601Z,27.20
2018-05-09T13:11:43.729Z,28.10
2018-05-09T13:16:45.351Z,28.00
2018-05-09T13:21:48.519Z,27.00
2018-05-09T13:26:49.891Z,26.90
2018-05-09T13:31:51.320Z,29.00
2018-05-09T13:36:52.845Z,31.10
2018-05-09T13:41:56.105Z,35.60
2018-05-09T13:46:58.609Z,35.50
2018-05-09T13:51:59.925Z,36.20
2018-05-09T13:57:05.864Z,29.20
2018-05-09T14:02:07.444Z,29.20
2018-05-09T14:07:08.910Z,28.50
2018-05-09T14:12:10.437Z,29.10
2018-05-09T14:17:11.987Z,28.80
2018-05-09T14:22:13.572Z,30.20
2018-05-09T14:27:16.113Z,29.90
2018-05-09T14:32:17.650Z,31.00
2018-05-09T14:37:22.414Z,32.10
2018-05-09T14:42:24.687Z,27.90
2018-05-09T14:47:26.143Z,27.90
2018-05-09T14:52:27.657Z,24.90
2018-05-09T14:57:29.955Z,24.50
2018-05-09T15:02:32.376Z,24.50
2018-05-09T15:07:33.830Z,22.90
2018-05-09T15:12:35.169Z,24.20
2018-05-09T15:17:36.521Z,23.90
2018-05-09T15:22:38.773Z,24.50
2018-05-09T15:27:40.291Z,24.60
2018-05-09T15:32:43.859Z,23.20
2018-05-09T15:37:45.318Z,22.30
2018-05-09T15:42:46.946Z,23.60
2018-05-09T15:47:49.707Z,23.60
2018-05-09T15:52:51.115Z,26.00
2018-05-09T15:57:52.484Z,25.50
2018-05-09T16:02:53.915Z,25.60
2018-05-09T16:07:55.448Z,24.70
2018-05-09T16:12:56.954Z,23.40
2018-05-09T16:17:58.483Z,22.80
2018-05-09T16:23:00.266Z,21.70
2018-05-09T16:28:03.494Z,22.10
2018-05-09T16:33:05.133Z,22.20
2018-05-09T16:38:06.612Z,23.50
2018-05-09T16:43:08.244Z,24.40
2018-05-09T16:48:10.722Z,24.80
2018-05-09T16:53:13.364Z,25.50
2018-05-09T16:58:15.614Z,25.90
2018-05-09T17:03:17.950Z,26.00
2018-05-09T17:08:21.506Z,25.70
2018-05-09T17:13:23.058Z,25.70
2018-05-09T17:18:24.647Z,27.00
2018-05-09T17:23:26.147Z,29.20
2018-05-09T17:28:28.379Z,30.00
2018-05-09T17:33:29.851Z,29.90
2018-05-09T17:38:31.461Z,31.50
2018-05-09T17:43:33.088Z,30.50
2018-05-09T17:48:35.501Z,31.20
2018-05-09T17:53:37.118Z,31.20
2018-05-09T17:58:38.710Z,30.00
2018-05-09T18:03:40.311Z,31.10
2018-05-09T18:08:41.768Z,32.80
2018-05-09T18:13:43.104Z,36.50
2018-05-09T18:18:44.635Z,38.00
2018-05-09T18:23:46.169Z,38.70
2018-05-09T18:28:47.667Z,40.90
2018-05-09T18:33:50.081Z,42.10
2018-05-09T18:38:52.597Z,43.70
2018-05-09T18:43:53.999Z,47.00
2018-05-09T18:48:55.347Z,48.90
2018-05-09T18:53:56.684Z,51.60
2018-05-09T18:58:58.022Z,53.50
2018-05-09T19:04:00.079Z,58.40
2018-05-09T19:09:02.163Z,61.20
2018-05-09T19:14:03.519Z,61.00
2018-05-09T19:19:07.631Z,63.80
2018-05-09T19:24:09.004Z,63.60
2018-05-09T19:29:10.331Z,64.10
2018-05-09T19:34:12.373Z,67.20
2018-05-09T19:39:15.643Z,67.10
2018-05-09T19:44:17.045Z,69.00
2018-05-09T19:49:18.379Z,69.60
2018-05-09T19:54:19.723Z,69.60
2018-05-09T19:59:21.161Z,69.40
2018-05-09T20:04:22.669Z,70.20
2018-05-09T20:09:24.107Z,70.30
2018-05-09T20:14:25.676Z,70.50
2018-05-09T20:19:27.067Z,71.50
2018-05-09T20:24:28.327Z,71.00
2018-05-09T20:29:29.899Z,71.10
2018-05-09T20:34:31.336Z,72.60
2018-05-09T20:39:33.717Z,73.80
2018-05-09T20:44:35.155Z,74.40
2018-05-09T20:49:37.512Z,74.90
2018-05-09T20:54:40.602Z,75.40
2018-05-09T20:59:41.978Z,75.30
2018-05-09T21:04:43.309Z,75.00
2018-05-09T21:09:44.704Z,74.90
2018-05-09T21:14:46.203Z,74.70
2018-05-09T21:19:47.593Z,73.70
2018-05-09T21:24:48.971Z,73.80
2018-05-09T21:29:51.365Z,74.60
2018-05-09T21:34:52.851Z,75.20
2018-05-09T21:39:55.062Z,74.70
2018-05-09T21:44:56.385Z,74.70
2018-05-09T21:49:57.865Z,74.80
2018-05-09T21:55:00.282Z,75.20
2018-05-09T22:00:02.779Z,76.20
2018-05-09T22:05:04.500Z,77.20
2018-05-09T22:10:06.098Z,77.50
2018-05-09T22:15:07.584Z,78.00
2018-05-09T22:20:09.041Z,77.90
2018-05-09T22:25:10.427Z,78.80
2018-05-09T22:30:11.778Z,79.40
2018-05-09T22:35:13.174Z,79.30
2018-05-09T22:40:16.691Z,78.90
2018-05-09T22:45:18.622Z,80.00
2018-05-09T22:50:20.198Z,81.10
2018-05-09T22:55:21.733Z,80.60
2018-05-09T23:00:23.963Z,79.20
2018-05-09T23:05:27.146Z,79.20
2018-05-09T23:10:28.630Z,78.40
2018-05-09T23:15:31.922Z,78.30
2018-05-09T23:20:33.498Z,77.70
2018-05-09T23:25:34.943Z,77.70
2018-05-09T23:30:37.135Z,78.00
2018-05-09T23:35:39.299Z,77.90
2018-05-09T23:40:41.956Z,78.10
2018-05-09T23:45:44.164Z,77.90
2018-05-09T23:50:45.691Z,77.80
2018-05-09T23:55:47.231Z,78.90
